sensor_id;sensor_type;location;lat;lon;timestamp;temperature;humidity
13268;DHT22;6702;47.068;15.458;2022-07-23T00:01:37;26.00;77.00
13268;DHT22;6702;47.068;15.458;2022-07-23T00:04:40;25.80;77.30
13268;DHT22;6702;47.068;15.458;2022-07-23T00:07:43;25.90;77.70
13268;DHT22;6702;47.068;15.458;2022-07-23T00:10:47;25.80;77.70
13268;DHT22;6702;47.068;15.458;2022-07-23T00:13:51;25.80;78.20
13268;DHT22;6702;47.068;15.458;2022-07-23T00:16:56;25.70;78.30
13268;DHT22;6702;47.068;15.458;2022-07-23T00:20:00;25.70;78.50
13268;DHT22;6702;47.068;15.458;2022-07-23T00:23:03;25.70;78.70
13268;DHT22;6702;47.068;15.458;2022-07-23T00:26:06;25.60;78.80
13268;DHT22;6702;47.068;15.458;2022-07-23T00:29:11;25.60;79.10
13268;DHT22;6702;47.068;15.458;2022-07-23T00:32:15;25.60;79.30
13268;DHT22;6702;47.068;15.458;2022-07-23T00:35:39;25.50;79.20
13268;DHT22;6702;47.068;15.458;2022-07-23T00:38:43;25.50;79.40
13268;DHT22;6702;47.068;15.458;2022-07-23T00:41:46;25.60;79.50
13268;DHT22;6702;47.068;15.458;2022-07-23T00:44:50;25.50;79.50
13268;DHT22;6702;47.068;15.458;2022-07-23T00:47:53;25.50;79.60
13268;DHT22;6702;47.068;15.458;2022-07-23T00:50:57;25.40;79.80
13268;DHT22;6702;47.068;15.458;2022-07-23T00:54:00;25.40;80.10
13268;DHT22;6702;47.068;15.458;2022-07-23T00:57:03;25.30;80.00
13268;DHT22;6702;47.068;15.458;2022-07-23T01:00:11;25.30;80.20
13268;DHT22;6702;47.068;15.458;2022-07-23T01:03:14;25.20;80.70
13268;DHT22;6702;47.068;15.458;2022-07-23T01:06:17;25.20;81.40
13268;DHT22;6702;47.068;15.458;2022-07-23T01:09:21;25.20;81.70
13268;DHT22;6702;47.068;15.458;2022-07-23T01:12:24;25.10;82.00
13268;DHT22;6702;47.068;15.458;2022-07-23T01:15:28;25.20;82.40
13268;DHT22;6702;47.068;15.458;2022-07-23T01:18:32;25.10;82.40
13268;DHT22;6702;47.068;15.458;2022-07-23T01:21:36;25.10;82.60
13268;DHT22;6702;47.068;15.458;2022-07-23T01:24:41;25.20;82.70
13268;DHT22;6702;47.068;15.458;2022-07-23T01:27:44;25.20;82.70
13268;DHT22;6702;47.068;15.458;2022-07-23T01:30:48;25.20;82.90
13268;DHT22;6702;47.068;15.458;2022-07-23T01:33:51;25.20;83.10
13268;DHT22;6702;47.068;15.458;2022-07-23T01:36:54;25.20;83.10
13268;DHT22;6702;47.068;15.458;2022-07-23T01:39:59;25.20;83.10
13268;DHT22;6702;47.068;15.458;2022-07-23T01:43:03;25.20;83.10
13268;DHT22;6702;47.068;15.458;2022-07-23T01:46:08;25.20;83.30
13268;DHT22;6702;47.068;15.458;2022-07-23T01:49:11;25.10;83.50
13268;DHT22;6702;47.068;15.458;2022-07-23T01:52:14;25.10;83.50
13268;DHT22;6702;47.068;15.458;2022-07-23T01:55:19;25.10;83.40
13268;DHT22;6702;47.068;15.458;2022-07-23T01:58:22;25.10;83.60
13268;DHT22;6702;47.068;15.458;2022-07-23T02:01:25;25.10;83.50
13268;DHT22;6702;47.068;15.458;2022-07-23T02:04:29;25.00;83.40
13268;DHT22;6702;47.068;15.458;2022-07-23T02:07:32;25.00;83.40
13268;DHT22;6702;47.068;15.458;2022-07-23T02:10:37;25.00;83.50
13268;DHT22;6702;47.068;15.458;2022-07-23T02:13:40;24.90;83.70
13268;DHT22;6702;47.068;15.458;2022-07-23T02:16:44;24.80;83.70
13268;DHT22;6702;47.068;15.458;2022-07-23T02:19:47;24.80;84.00
13268;DHT22;6702;47.068;15.458;2022-07-23T02:22:50;24.80;84.00
13268;DHT22;6702;47.068;15.458;2022-07-23T02:25:55;24.80;84.10
13268;DHT22;6702;47.068;15.458;2022-07-23T02:28:58;24.70;84.90
13268;DHT22;6702;47.068;15.458;2022-07-23T02:32:01;24.60;85.00
13268;DHT22;6702;47.068;15.458;2022-07-23T02:35:05;24.60;84.80
13268;DHT22;6702;47.068;15.458;2022-07-23T02:38:08;24.60;85.20
13268;DHT22;6702;47.068;15.458;2022-07-23T02:41:13;24.60;85.40
13268;DHT22;6702;47.068;15.458;2022-07-23T02:44:16;24.60;85.50
13268;DHT22;6702;47.068;15.458;2022-07-23T02:47:19;24.50;85.60
13268;DHT22;6702;47.068;15.458;2022-07-23T02:50:23;24.50;85.90
13268;DHT22;6702;47.068;15.458;2022-07-23T02:53:26;24.50;86.30
13268;DHT22;6702;47.068;15.458;2022-07-23T02:56:30;24.50;86.20
13268;DHT22;6702;47.068;15.458;2022-07-23T02:59:34;24.40;86.50
13268;DHT22;6702;47.068;15.458;2022-07-23T03:02:37;24.40;87.00
13268;DHT22;6702;47.068;15.458;2022-07-23T03:05:40;24.40;87.10
13268;DHT22;6702;47.068;15.458;2022-07-23T03:08:43;24.40;87.40
13268;DHT22;6702;47.068;15.458;2022-07-23T03:11:48;24.40;87.70
13268;DHT22;6702;47.068;15.458;2022-07-23T03:14:51;24.40;88.00
13268;DHT22;6702;47.068;15.458;2022-07-23T03:17:54;24.30;88.30
13268;DHT22;6702;47.068;15.458;2022-07-23T03:20:57;24.30;88.50
13268;DHT22;6702;47.068;15.458;2022-07-23T03:24:00;24.30;88.60
13268;DHT22;6702;47.068;15.458;2022-07-23T03:27:04;24.30;88.90
13268;DHT22;6702;47.068;15.458;2022-07-23T03:30:08;24.10;88.90
13268;DHT22;6702;47.068;15.458;2022-07-23T03:33:12;24.10;89.00
13268;DHT22;6702;47.068;15.458;2022-07-23T03:36:15;24.10;89.10
13268;DHT22;6702;47.068;15.458;2022-07-23T03:39:18;24.10;89.60
13268;DHT22;6702;47.068;15.458;2022-07-23T03:42:23;24.10;89.60
13268;DHT22;6702;47.068;15.458;2022-07-23T03:45:26;24.10;89.60
13268;DHT22;6702;47.068;15.458;2022-07-23T03:48:29;24.20;89.70
13268;DHT22;6702;47.068;15.458;2022-07-23T03:51:32;24.20;90.20
13268;DHT22;6702;47.068;15.458;2022-07-23T03:54:35;24.20;89.70
13268;DHT22;6702;47.068;15.458;2022-07-23T03:57:40;24.10;89.60
13268;DHT22;6702;47.068;15.458;2022-07-23T04:00:43;24.10;89.60
13268;DHT22;6702;47.068;15.458;2022-07-23T04:03:46;24.10;89.70
13268;DHT22;6702;47.068;15.458;2022-07-23T04:06:49;24.00;90.00
13268;DHT22;6702;47.068;15.458;2022-07-23T04:09:52;23.90;90.10
13268;DHT22;6702;47.068;15.458;2022-07-23T04:12:57;24.00;90.20
13268;DHT22;6702;47.068;15.458;2022-07-23T04:16:00;24.00;90.30
13268;DHT22;6702;47.068;15.458;2022-07-23T04:19:04;24.00;90.30
13268;DHT22;6702;47.068;15.458;2022-07-23T04:22:07;24.00;90.30
13268;DHT22;6702;47.068;15.458;2022-07-23T04:25:10;23.90;90.50
13268;DHT22;6702;47.068;15.458;2022-07-23T04:28:16;23.90;90.60
13268;DHT22;6702;47.068;15.458;2022-07-23T04:31:19;23.90;90.80
13268;DHT22;6702;47.068;15.458;2022-07-23T04:34:23;24.00;91.00
13268;DHT22;6702;47.068;15.458;2022-07-23T04:37:28;24.10;91.10
13268;DHT22;6702;47.068;15.458;2022-07-23T04:40:31;24.20;91.10
13268;DHT22;6702;47.068;15.458;2022-07-23T04:43:35;24.30;91.10
13268;DHT22;6702;47.068;15.458;2022-07-23T04:46:39;24.40;91.10
13268;DHT22;6702;47.068;15.458;2022-07-23T04:49:42;24.50;91.10
13268;DHT22;6702;47.068;15.458;2022-07-23T04:52:45;24.50;91.00
13268;DHT22;6702;47.068;15.458;2022-07-23T04:55:48;24.60;91.00
13268;DHT22;6702;47.068;15.458;2022-07-23T04:58:53;24.60;91.00
13268;DHT22;6702;47.068;15.458;2022-07-23T05:01:56;24.70;91.00
13268;DHT22;6702;47.068;15.458;2022-07-23T05:04:59;24.80;91.00
13268;DHT22;6702;47.068;15.458;2022-07-23T05:08:02;24.80;90.80
13268;DHT22;6702;47.068;15.458;2022-07-23T05:11:05;24.90;91.00
13268;DHT22;6702;47.068;15.458;2022-07-23T05:14:10;25.00;91.00
13268;DHT22;6702;47.068;15.458;2022-07-23T05:17:14;25.10;90.80
13268;DHT22;6702;47.068;15.458;2022-07-23T05:20:17;25.30;90.50
13268;DHT22;6702;47.068;15.458;2022-07-23T05:23:20;25.40;90.30
13268;DHT22;6702;47.068;15.458;2022-07-23T05:26:23;25.50;90.20
13268;DHT22;6702;47.068;15.458;2022-07-23T05:29:28;25.60;90.10
13268;DHT22;6702;47.068;15.458;2022-07-23T05:32:31;25.70;90.00
13268;DHT22;6702;47.068;15.458;2022-07-23T05:35:35;25.90;89.70
13268;DHT22;6702;47.068;15.458;2022-07-23T05:38:38;25.90;89.40
13268;DHT22;6702;47.068;15.458;2022-07-23T05:41:41;26.00;89.10
13268;DHT22;6702;47.068;15.458;2022-07-23T05:44:45;26.20;88.60
13268;DHT22;6702;47.068;15.458;2022-07-23T05:47:49;26.40;88.00
13268;DHT22;6702;47.068;15.458;2022-07-23T05:50:52;26.50;87.80
13268;DHT22;6702;47.068;15.458;2022-07-23T05:53:55;26.60;88.00
13268;DHT22;6702;47.068;15.458;2022-07-23T05:56:58;26.80;86.90
13268;DHT22;6702;47.068;15.458;2022-07-23T06:00:05;27.00;86.70
13268;DHT22;6702;47.068;15.458;2022-07-23T06:03:08;27.30;85.30
13268;DHT22;6702;47.068;15.458;2022-07-23T06:06:11;27.70;84.20
13268;DHT22;6702;47.068;15.458;2022-07-23T06:09:14;28.00;82.80
13268;DHT22;6702;47.068;15.458;2022-07-23T06:12:18;28.50;81.70
13268;DHT22;6702;47.068;15.458;2022-07-23T06:15:22;29.00;79.40
13268;DHT22;6702;47.068;15.458;2022-07-23T06:18:25;29.30;77.90
13268;DHT22;6702;47.068;15.458;2022-07-23T06:21:29;29.60;76.20
13268;DHT22;6702;47.068;15.458;2022-07-23T06:24:49;30.10;74.80
13268;DHT22;6702;47.068;15.458;2022-07-23T06:27:53;30.60;73.30
13268;DHT22;6702;47.068;15.458;2022-07-23T06:30:58;31.10;71.40
13268;DHT22;6702;47.068;15.458;2022-07-23T06:34:03;31.40;69.30
13268;DHT22;6702;47.068;15.458;2022-07-23T06:37:06;32.00;67.50
13268;DHT22;6702;47.068;15.458;2022-07-23T06:40:10;32.40;66.30
13268;DHT22;6702;47.068;15.458;2022-07-23T06:43:14;33.10;63.40
13268;DHT22;6702;47.068;15.458;2022-07-23T06:46:19;33.50;61.20
13268;DHT22;6702;47.068;15.458;2022-07-23T06:49:23;33.80;60.00
13268;DHT22;6702;47.068;15.458;2022-07-23T06:52:26;34.50;57.00
13268;DHT22;6702;47.068;15.458;2022-07-23T06:55:29;35.00;56.70
13268;DHT22;6702;47.068;15.458;2022-07-23T06:58:33;35.40;55.80
13268;DHT22;6702;47.068;15.458;2022-07-23T07:01:37;35.70;55.30
13268;DHT22;6702;47.068;15.458;2022-07-23T07:04:40;36.30;53.80
13268;DHT22;6702;47.068;15.458;2022-07-23T07:07:43;36.70;52.70
13268;DHT22;6702;47.068;15.458;2022-07-23T07:10:47;37.20;50.60
13268;DHT22;6702;47.068;15.458;2022-07-23T07:13:50;37.50;49.50
13268;DHT22;6702;47.068;15.458;2022-07-23T07:16:54;37.50;47.60
13268;DHT22;6702;47.068;15.458;2022-07-23T07:19:57;37.30;47.40
13268;DHT22;6702;47.068;15.458;2022-07-23T07:23:00;36.80;48.60
13268;DHT22;6702;47.068;15.458;2022-07-23T07:26:04;36.40;48.90
13268;DHT22;6702;47.068;15.458;2022-07-23T07:29:07;36.00;49.00
13268;DHT22;6702;47.068;15.458;2022-07-23T07:32:11;35.90;49.00
13268;DHT22;6702;47.068;15.458;2022-07-23T07:35:35;35.90;49.40
13268;DHT22;6702;47.068;15.458;2022-07-23T07:38:38;35.90;49.70
13268;DHT22;6702;47.068;15.458;2022-07-23T07:41:41;36.30;49.60
13268;DHT22;6702;47.068;15.458;2022-07-23T07:44:44;36.60;49.30
13268;DHT22;6702;47.068;15.458;2022-07-23T07:47:49;36.80;49.40
13268;DHT22;6702;47.068;15.458;2022-07-23T07:50:52;37.60;48.70
13268;DHT22;6702;47.068;15.458;2022-07-23T07:53:56;38.30;47.60
13268;DHT22;6702;47.068;15.458;2022-07-23T07:56:59;39.30;46.20
13268;DHT22;6702;47.068;15.458;2022-07-23T08:00:10;39.40;44.70
13268;DHT22;6702;47.068;15.458;2022-07-23T08:03:15;40.00;44.00
13268;DHT22;6702;47.068;15.458;2022-07-23T08:06:18;40.10;43.60
13268;DHT22;6702;47.068;15.458;2022-07-23T08:09:22;39.90;43.40
13268;DHT22;6702;47.068;15.458;2022-07-23T08:12:25;39.60;42.60
13268;DHT22;6702;47.068;15.458;2022-07-23T08:15:29;39.40;42.20
13268;DHT22;6702;47.068;15.458;2022-07-23T08:18:33;39.20;41.60
13268;DHT22;6702;47.068;15.458;2022-07-23T08:21:37;39.20;43.30
13268;DHT22;6702;47.068;15.458;2022-07-23T08:24:40;39.00;41.80
13268;DHT22;6702;47.068;15.458;2022-07-23T08:27:43;39.00;42.20
13268;DHT22;6702;47.068;15.458;2022-07-23T08:30:46;39.00;41.80
13268;DHT22;6702;47.068;15.458;2022-07-23T08:33:51;39.10;40.20
13268;DHT22;6702;47.068;15.458;2022-07-23T08:36:54;39.00;39.70
13268;DHT22;6702;47.068;15.458;2022-07-23T08:39:57;38.90;41.00
13268;DHT22;6702;47.068;15.458;2022-07-23T08:43:05;38.70;42.10
13268;DHT22;6702;47.068;15.458;2022-07-23T08:46:09;38.70;42.90
13268;DHT22;6702;47.068;15.458;2022-07-23T08:49:14;38.80;42.50
13268;DHT22;6702;47.068;15.458;2022-07-23T08:52:17;39.00;42.20
13268;DHT22;6702;47.068;15.458;2022-07-23T08:55:28;39.00;40.90
13268;DHT22;6702;47.068;15.458;2022-07-23T08:58:31;39.00;39.30
13268;DHT22;6702;47.068;15.458;2022-07-23T09:01:35;38.90;38.10
13268;DHT22;6702;47.068;15.458;2022-07-23T09:04:40;38.70;38.90
13268;DHT22;6702;47.068;15.458;2022-07-23T09:08:05;38.50;39.40
13268;DHT22;6702;47.068;15.458;2022-07-23T09:11:09;38.50;39.70
13268;DHT22;6702;47.068;15.458;2022-07-23T09:14:12;38.30;41.80
13268;DHT22;6702;47.068;15.458;2022-07-23T09:17:17;37.80;42.60
13268;DHT22;6702;47.068;15.458;2022-07-23T09:20:22;37.30;43.80
13268;DHT22;6702;47.068;15.458;2022-07-23T09:23:37;37.00;44.20
13268;DHT22;6702;47.068;15.458;2022-07-23T09:26:42;36.90;44.70
13268;DHT22;6702;47.068;15.458;2022-07-23T09:29:55;36.80;45.30
13268;DHT22;6702;47.068;15.458;2022-07-23T09:33:06;36.50;45.30
13268;DHT22;6702;47.068;15.458;2022-07-23T09:36:11;36.40;45.80
13268;DHT22;6702;47.068;15.458;2022-07-23T09:39:21;36.30;46.60
13268;DHT22;6702;47.068;15.458;2022-07-23T09:42:27;36.20;46.90
13268;DHT22;6702;47.068;15.458;2022-07-23T09:45:30;36.20;46.90
13268;DHT22;6702;47.068;15.458;2022-07-23T09:48:33;36.10;46.80
13268;DHT22;6702;47.068;15.458;2022-07-23T09:51:44;36.00;47.70
13268;DHT22;6702;47.068;15.458;2022-07-23T09:54:58;35.70;43.70
13268;DHT22;6702;47.068;15.458;2022-07-23T09:58:02;35.40;42.70
13268;DHT22;6702;47.068;15.458;2022-07-23T10:01:06;35.40;42.50
13268;DHT22;6702;47.068;15.458;2022-07-23T10:04:10;35.60;42.00
13268;DHT22;6702;47.068;15.458;2022-07-23T10:07:17;35.80;42.30
13268;DHT22;6702;47.068;15.458;2022-07-23T10:10:21;35.90;41.90
13268;DHT22;6702;47.068;15.458;2022-07-23T10:13:25;35.80;42.10
13268;DHT22;6702;47.068;15.458;2022-07-23T10:16:46;35.80;43.30
13268;DHT22;6702;47.068;15.458;2022-07-23T10:19:50;35.80;42.50
13268;DHT22;6702;47.068;15.458;2022-07-23T10:23:02;35.80;42.10
13268;DHT22;6702;47.068;15.458;2022-07-23T10:26:15;36.00;41.80
13268;DHT22;6702;47.068;15.458;2022-07-23T10:29:24;36.10;41.70
13268;DHT22;6702;47.068;15.458;2022-07-23T10:32:40;36.30;42.20
13268;DHT22;6702;47.068;15.458;2022-07-23T10:35:50;36.50;41.10
13268;DHT22;6702;47.068;15.458;2022-07-23T10:39:02;36.70;40.50
13268;DHT22;6702;47.068;15.458;2022-07-23T10:42:11;36.90;41.30
13268;DHT22;6702;47.068;15.458;2022-07-23T10:45:29;36.90;42.20
13268;DHT22;6702;47.068;15.458;2022-07-23T10:48:33;36.80;42.80
13268;DHT22;6702;47.068;15.458;2022-07-23T10:51:38;36.60;42.80
13268;DHT22;6702;47.068;15.458;2022-07-23T10:54:44;36.60;43.10
13268;DHT22;6702;47.068;15.458;2022-07-23T10:57:48;36.50;44.10
13268;DHT22;6702;47.068;15.458;2022-07-23T11:00:51;36.70;44.50
13268;DHT22;6702;47.068;15.458;2022-07-23T11:03:56;36.90;44.20
13268;DHT22;6702;47.068;15.458;2022-07-23T11:07:08;37.10;44.50
13268;DHT22;6702;47.068;15.458;2022-07-23T11:10:32;37.10;43.90
13268;DHT22;6702;47.068;15.458;2022-07-23T11:13:41;37.10;43.80
13268;DHT22;6702;47.068;15.458;2022-07-23T11:16:46;37.20;43.70
13268;DHT22;6702;47.068;15.458;2022-07-23T11:20:13;37.10;42.40
13268;DHT22;6702;47.068;15.458;2022-07-23T11:23:17;36.90;42.00
13268;DHT22;6702;47.068;15.458;2022-07-23T11:26:44;36.80;41.70
13268;DHT22;6702;47.068;15.458;2022-07-23T11:29:48;36.70;42.00
13268;DHT22;6702;47.068;15.458;2022-07-23T11:32:53;36.80;41.60
13268;DHT22;6702;47.068;15.458;2022-07-23T11:36:01;36.90;42.50
13268;DHT22;6702;47.068;15.458;2022-07-23T11:39:06;36.90;41.80
13268;DHT22;6702;47.068;15.458;2022-07-23T11:42:18;36.90;41.90
13268;DHT22;6702;47.068;15.458;2022-07-23T11:45:22;36.90;41.20
13268;DHT22;6702;47.068;15.458;2022-07-23T11:48:26;36.90;41.00
13268;DHT22;6702;47.068;15.458;2022-07-23T11:51:30;37.00;41.60
13268;DHT22;6702;47.068;15.458;2022-07-23T11:54:36;36.90;41.30
13268;DHT22;6702;47.068;15.458;2022-07-23T11:57:43;36.80;41.20
13268;DHT22;6702;47.068;15.458;2022-07-23T12:00:46;36.90;41.20
13268;DHT22;6702;47.068;15.458;2022-07-23T12:03:51;37.00;41.00
13268;DHT22;6702;47.068;15.458;2022-07-23T12:06:54;37.10;41.10
13268;DHT22;6702;47.068;15.458;2022-07-23T12:09:59;37.30;41.20
13268;DHT22;6702;47.068;15.458;2022-07-23T12:13:04;37.40;40.40
13268;DHT22;6702;47.068;15.458;2022-07-23T12:16:08;37.40;39.60
13268;DHT22;6702;47.068;15.458;2022-07-23T12:19:12;37.20;39.60
13268;DHT22;6702;47.068;15.458;2022-07-23T12:22:15;37.10;39.40
13268;DHT22;6702;47.068;15.458;2022-07-23T12:25:20;37.20;39.20
13268;DHT22;6702;47.068;15.458;2022-07-23T12:28:29;37.20;39.00
13268;DHT22;6702;47.068;15.458;2022-07-23T12:31:34;37.10;38.40
13268;DHT22;6702;47.068;15.458;2022-07-23T12:34:39;37.10;37.70
13268;DHT22;6702;47.068;15.458;2022-07-23T12:37:44;37.10;38.80
13268;DHT22;6702;47.068;15.458;2022-07-23T12:40:48;37.30;38.70
13268;DHT22;6702;47.068;15.458;2022-07-23T12:43:53;37.30;38.60
13268;DHT22;6702;47.068;15.458;2022-07-23T12:46:57;37.30;38.20
13268;DHT22;6702;47.068;15.458;2022-07-23T12:50:00;37.20;37.70
13268;DHT22;6702;47.068;15.458;2022-07-23T12:53:08;37.20;39.00
13268;DHT22;6702;47.068;15.458;2022-07-23T12:56:28;37.30;38.80
13268;DHT22;6702;47.068;15.458;2022-07-23T12:59:33;37.40;37.60
13268;DHT22;6702;47.068;15.458;2022-07-23T13:02:45;37.20;37.30
13268;DHT22;6702;47.068;15.458;2022-07-23T13:05:49;37.10;37.70
13268;DHT22;6702;47.068;15.458;2022-07-23T13:08:53;37.10;37.60
13268;DHT22;6702;47.068;15.458;2022-07-23T13:11:57;37.10;38.00
13268;DHT22;6702;47.068;15.458;2022-07-23T13:15:02;37.30;38.20
13268;DHT22;6702;47.068;15.458;2022-07-23T13:18:06;37.30;37.70
13268;DHT22;6702;47.068;15.458;2022-07-23T13:21:09;37.40;37.70
13268;DHT22;6702;47.068;15.458;2022-07-23T13:24:13;37.40;37.40
13268;DHT22;6702;47.068;15.458;2022-07-23T13:27:16;37.30;37.70
13268;DHT22;6702;47.068;15.458;2022-07-23T13:30:22;37.30;37.60
13268;DHT22;6702;47.068;15.458;2022-07-23T13:33:25;37.20;37.10
13268;DHT22;6702;47.068;15.458;2022-07-23T13:36:29;37.00;37.30
13268;DHT22;6702;47.068;15.458;2022-07-23T13:39:32;36.90;37.60
13268;DHT22;6702;47.068;15.458;2022-07-23T13:42:39;36.90;37.90
13268;DHT22;6702;47.068;15.458;2022-07-23T13:45:44;37.00;37.80
13268;DHT22;6702;47.068;15.458;2022-07-23T13:48:48;37.10;37.80
13268;DHT22;6702;47.068;15.458;2022-07-23T13:51:51;37.10;37.50
13268;DHT22;6702;47.068;15.458;2022-07-23T13:54:55;37.00;37.10
13268;DHT22;6702;47.068;15.458;2022-07-23T13:57:58;37.10;37.50
13268;DHT22;6702;47.068;15.458;2022-07-23T14:01:03;37.10;37.70
13268;DHT22;6702;47.068;15.458;2022-07-23T14:04:07;37.10;36.70
13268;DHT22;6702;47.068;15.458;2022-07-23T14:07:10;37.10;37.30
13268;DHT22;6702;47.068;15.458;2022-07-23T14:10:13;37.00;36.80
13268;DHT22;6702;47.068;15.458;2022-07-23T14:13:17;36.90;37.10
13268;DHT22;6702;47.068;15.458;2022-07-23T14:16:24;36.90;37.10
13268;DHT22;6702;47.068;15.458;2022-07-23T14:19:28;36.90;37.30
13268;DHT22;6702;47.068;15.458;2022-07-23T14:22:32;37.10;37.40
13268;DHT22;6702;47.068;15.458;2022-07-23T14:25:36;37.10;37.50
13268;DHT22;6702;47.068;15.458;2022-07-23T14:28:40;37.10;37.40
13268;DHT22;6702;47.068;15.458;2022-07-23T14:31:44;37.30;37.10
13268;DHT22;6702;47.068;15.458;2022-07-23T14:34:48;37.40;37.60
13268;DHT22;6702;47.068;15.458;2022-07-23T14:37:51;37.30;37.50
13268;DHT22;6702;47.068;15.458;2022-07-23T14:40:55;37.30;36.70
13268;DHT22;6702;47.068;15.458;2022-07-23T14:44:01;37.30;37.30
13268;DHT22;6702;47.068;15.458;2022-07-23T14:47:08;37.20;37.20
13268;DHT22;6702;47.068;15.458;2022-07-23T14:50:11;37.10;37.70
13268;DHT22;6702;47.068;15.458;2022-07-23T14:53:14;36.90;37.00
13268;DHT22;6702;47.068;15.458;2022-07-23T14:56:23;36.60;37.50
13268;DHT22;6702;47.068;15.458;2022-07-23T14:59:27;36.40;37.70
13268;DHT22;6702;47.068;15.458;2022-07-23T15:02:32;36.10;38.30
13268;DHT22;6702;47.068;15.458;2022-07-23T15:05:35;36.10;38.50
13268;DHT22;6702;47.068;15.458;2022-07-23T15:08:39;36.10;38.20
13268;DHT22;6702;47.068;15.458;2022-07-23T15:11:42;36.10;38.20
13268;DHT22;6702;47.068;15.458;2022-07-23T15:14:45;36.20;38.10
13268;DHT22;6702;47.068;15.458;2022-07-23T15:17:50;36.10;38.20
13268;DHT22;6702;47.068;15.458;2022-07-23T15:20:53;36.10;39.20
13268;DHT22;6702;47.068;15.458;2022-07-23T15:23:56;36.20;39.00
13268;DHT22;6702;47.068;15.458;2022-07-23T15:27:01;36.10;39.40
13268;DHT22;6702;47.068;15.458;2022-07-23T15:30:06;36.30;39.60
13268;DHT22;6702;47.068;15.458;2022-07-23T15:33:11;36.50;39.10
13268;DHT22;6702;47.068;15.458;2022-07-23T15:36:22;36.60;38.30
13268;DHT22;6702;47.068;15.458;2022-07-23T15:39:25;36.70;38.00
13268;DHT22;6702;47.068;15.458;2022-07-23T15:42:30;36.60;38.10
13268;DHT22;6702;47.068;15.458;2022-07-23T15:45:33;36.60;38.30
13268;DHT22;6702;47.068;15.458;2022-07-23T15:48:38;36.50;38.30
13268;DHT22;6702;47.068;15.458;2022-07-23T15:51:42;36.50;37.90
13268;DHT22;6702;47.068;15.458;2022-07-23T15:54:49;36.30;37.90
13268;DHT22;6702;47.068;15.458;2022-07-23T15:57:52;35.60;43.00
13268;DHT22;6702;47.068;15.458;2022-07-23T16:00:56;35.00;44.80
13268;DHT22;6702;47.068;15.458;2022-07-23T16:04:01;34.80;45.90
13268;DHT22;6702;47.068;15.458;2022-07-23T16:07:04;34.70;45.90
13268;DHT22;6702;47.068;15.458;2022-07-23T16:10:12;34.20;46.40
13268;DHT22;6702;47.068;15.458;2022-07-23T16:13:15;33.90;46.60
13268;DHT22;6702;47.068;15.458;2022-07-23T16:16:18;33.60;47.30
13268;DHT22;6702;47.068;15.458;2022-07-23T16:19:25;33.40;47.50
13268;DHT22;6702;47.068;15.458;2022-07-23T16:22:28;33.40;47.30
13268;DHT22;6702;47.068;15.458;2022-07-23T16:25:33;33.40;47.60
13268;DHT22;6702;47.068;15.458;2022-07-23T16:28:36;33.50;47.50
13268;DHT22;6702;47.068;15.458;2022-07-23T16:31:40;33.60;47.20
13268;DHT22;6702;47.068;15.458;2022-07-23T16:34:45;33.50;47.00
13268;DHT22;6702;47.068;15.458;2022-07-23T16:37:48;33.30;47.00
13268;DHT22;6702;47.068;15.458;2022-07-23T16:40:51;33.20;47.30
13268;DHT22;6702;47.068;15.458;2022-07-23T16:43:54;32.90;47.30
13268;DHT22;6702;47.068;15.458;2022-07-23T16:46:58;32.90;47.50
13268;DHT22;6702;47.068;15.458;2022-07-23T16:50:04;32.90;47.30
13268;DHT22;6702;47.068;15.458;2022-07-23T16:53:09;32.80;47.30
13268;DHT22;6702;47.068;15.458;2022-07-23T16:56:12;32.70;47.30
13268;DHT22;6702;47.068;15.458;2022-07-23T16:59:15;32.70;47.40
13268;DHT22;6702;47.068;15.458;2022-07-23T17:02:18;32.50;48.90
13268;DHT22;6702;47.068;15.458;2022-07-23T17:05:23;32.50;48.70
13268;DHT22;6702;47.068;15.458;2022-07-23T17:08:26;32.40;49.30
13268;DHT22;6702;47.068;15.458;2022-07-23T17:11:30;32.40;50.30
13268;DHT22;6702;47.068;15.458;2022-07-23T17:14:33;32.30;49.20
13268;DHT22;6702;47.068;15.458;2022-07-23T17:17:36;32.20;50.00
13268;DHT22;6702;47.068;15.458;2022-07-23T17:20:41;32.10;49.80
13268;DHT22;6702;47.068;15.458;2022-07-23T17:23:44;31.90;49.80
13268;DHT22;6702;47.068;15.458;2022-07-23T17:26:48;31.80;51.00
13268;DHT22;6702;47.068;15.458;2022-07-23T17:29:51;31.70;51.10
13268;DHT22;6702;47.068;15.458;2022-07-23T17:32:55;31.60;51.10
13268;DHT22;6702;47.068;15.458;2022-07-23T17:36:00;31.60;51.20
13268;DHT22;6702;47.068;15.458;2022-07-23T17:39:03;31.50;51.20
13268;DHT22;6702;47.068;15.458;2022-07-23T17:42:08;31.40;51.40
13268;DHT22;6702;47.068;15.458;2022-07-23T17:45:11;31.40;51.80
13268;DHT22;6702;47.068;15.458;2022-07-23T17:48:17;31.30;51.60
13268;DHT22;6702;47.068;15.458;2022-07-23T17:51:22;31.20;51.70
13268;DHT22;6702;47.068;15.458;2022-07-23T17:54:25;31.00;51.80
13268;DHT22;6702;47.068;15.458;2022-07-23T17:57:28;31.00;52.40
13268;DHT22;6702;47.068;15.458;2022-07-23T18:00:34;31.00;53.00
13268;DHT22;6702;47.068;15.458;2022-07-23T18:03:38;31.00;53.30
13268;DHT22;6702;47.068;15.458;2022-07-23T18:06:43;30.90;53.40
13268;DHT22;6702;47.068;15.458;2022-07-23T18:09:46;30.90;53.50
13268;DHT22;6702;47.068;15.458;2022-07-23T18:12:50;30.80;53.40
13268;DHT22;6702;47.068;15.458;2022-07-23T18:15:53;30.70;53.70
13268;DHT22;6702;47.068;15.458;2022-07-23T18:18:57;30.70;53.50
13268;DHT22;6702;47.068;15.458;2022-07-23T18:22:01;30.50;53.70
13268;DHT22;6702;47.068;15.458;2022-07-23T18:25:06;30.50;54.10
13268;DHT22;6702;47.068;15.458;2022-07-23T18:28:09;30.50;54.30
13268;DHT22;6702;47.068;15.458;2022-07-23T18:31:12;30.40;54.50
13268;DHT22;6702;47.068;15.458;2022-07-23T18:34:17;30.40;54.70
13268;DHT22;6702;47.068;15.458;2022-07-23T18:37:27;30.30;54.60
13268;DHT22;6702;47.068;15.458;2022-07-23T18:40:38;30.10;54.80
13268;DHT22;6702;47.068;15.458;2022-07-23T18:43:41;30.10;55.30
13268;DHT22;6702;47.068;15.458;2022-07-23T18:46:45;30.10;55.70
13268;DHT22;6702;47.068;15.458;2022-07-23T18:49:48;30.00;55.60
13268;DHT22;6702;47.068;15.458;2022-07-23T18:52:55;29.90;55.50
13268;DHT22;6702;47.068;15.458;2022-07-23T18:55:58;29.90;55.40
13268;DHT22;6702;47.068;15.458;2022-07-23T18:59:01;29.70;55.60
13268;DHT22;6702;47.068;15.458;2022-07-23T19:02:05;29.60;55.90
13268;DHT22;6702;47.068;15.458;2022-07-23T19:05:09;29.60;56.40
13268;DHT22;6702;47.068;15.458;2022-07-23T19:08:14;29.60;56.40
13268;DHT22;6702;47.068;15.458;2022-07-23T19:11:17;29.50;56.40
13268;DHT22;6702;47.068;15.458;2022-07-23T19:14:20;29.40;57.00
13268;DHT22;6702;47.068;15.458;2022-07-23T19:17:23;29.50;57.80
13268;DHT22;6702;47.068;15.458;2022-07-23T19:20:26;29.50;58.00
13268;DHT22;6702;47.068;15.458;2022-07-23T19:23:31;29.50;57.00
13268;DHT22;6702;47.068;15.458;2022-07-23T19:26:34;29.50;56.80